sensor_id;sensor_type;location;lat;lon;timestamp;P1;durP1;ratioP1;P2;durP2;ratioP2
35488;SDS011;21602;55.670;37.578;2022-08-19T00:01:53;7.53;;;3.85;;
35488;SDS011;21602;55.670;37.578;2022-08-19T00:06:47;6.53;;;3.00;;
35488;SDS011;21602;55.670;37.578;2022-08-19T00:09:14;6.22;;;2.75;;
35488;SDS011;21602;55.670;37.578;2022-08-19T00:11:42;13.18;;;6.93;;
35488;SDS011;21602;55.670;37.578;2022-08-19T00:14:09;10.87;;;6.60;;
35488;SDS011;21602;55.670;37.578;2022-08-19T00:16:37;17.08;;;9.55;;
35488;SDS011;21602;55.670;37.578;2022-08-19T00:19:04;6.40;;;3.42;;
35488;SDS011;21602;55.670;37.578;2022-08-19T00:21:30;11.25;;;4.35;;
35488;SDS011;21602;55.670;37.578;2022-08-19T00:23:56;17.08;;;9.40;;
35488;SDS011;21602;55.670;37.578;2022-08-19T00:26:24;12.55;;;6.70;;
35488;SDS011;21602;55.670;37.578;2022-08-19T00:28:50;5.30;;;4.13;;
35488;SDS011;21602;55.670;37.578;2022-08-19T00:31:16;7.93;;;4.85;;
35488;SDS011;21602;55.670;37.578;2022-08-19T00:33:42;5.97;;;4.32;;
35488;SDS011;21602;55.670;37.578;2022-08-19T00:36:08;7.00;;;4.38;;
35488;SDS011;21602;55.670;37.578;2022-08-19T00:38:36;6.32;;;3.90;;
35488;SDS011;21602;55.670;37.578;2022-08-19T00:41:03;7.30;;;4.53;;
35488;SDS011;21602;55.670;37.578;2022-08-19T00:43:30;6.47;;;3.03;;
35488;SDS011;21602;55.670;37.578;2022-08-19T00:45:56;9.48;;;4.03;;
35488;SDS011;21602;55.670;37.578;2022-08-19T00:48:22;5.85;;;3.70;;
35488;SDS011;21602;55.670;37.578;2022-08-19T00:50:49;6.18;;;3.35;;
35488;SDS011;21602;55.670;37.578;2022-08-19T00:53:19;5.53;;;3.47;;
35488;SDS011;21602;55.670;37.578;2022-08-19T00:55:48;8.90;;;3.85;;
35488;SDS011;21602;55.670;37.578;2022-08-19T00:58:16;8.40;;;3.53;;
35488;SDS011;21602;55.670;37.578;2022-08-19T01:00:44;7.95;;;3.67;;
35488;SDS011;21602;55.670;37.578;2022-08-19T01:03:13;11.47;;;3.73;;
35488;SDS011;21602;55.670;37.578;2022-08-19T01:05:42;10.95;;;3.28;;
35488;SDS011;21602;55.670;37.578;2022-08-19T01:08:10;5.20;;;2.92;;
35488;SDS011;21602;55.670;37.578;2022-08-19T01:10:39;8.77;;;3.05;;
35488;SDS011;21602;55.670;37.578;2022-08-19T01:13:08;5.90;;;3.05;;
35488;SDS011;21602;55.670;37.578;2022-08-19T01:15:38;5.95;;;2.90;;
35488;SDS011;21602;55.670;37.578;2022-08-19T01:18:10;5.30;;;3.13;;
35488;SDS011;21602;55.670;37.578;2022-08-19T01:20:38;9.88;;;3.83;;
35488;SDS011;21602;55.670;37.578;2022-08-19T01:23:06;7.53;;;3.60;;
35488;SDS011;21602;55.670;37.578;2022-08-19T01:25:41;7.10;;;3.50;;
35488;SDS011;21602;55.670;37.578;2022-08-19T01:28:18;8.88;;;3.60;;
35488;SDS011;21602;55.670;37.578;2022-08-19T01:30:48;6.25;;;3.47;;
35488;SDS011;21602;55.670;37.578;2022-08-19T01:33:15;6.65;;;3.40;;
35488;SDS011;21602;55.670;37.578;2022-08-19T01:35:41;7.35;;;3.10;;
35488;SDS011;21602;55.670;37.578;2022-08-19T01:38:09;6.82;;;3.50;;
35488;SDS011;21602;55.670;37.578;2022-08-19T01:40:44;7.07;;;3.55;;
35488;SDS011;21602;55.670;37.578;2022-08-19T01:43:10;5.22;;;3.00;;
35488;SDS011;21602;55.670;37.578;2022-08-19T01:45:36;11.57;;;3.67;;
35488;SDS011;21602;55.670;37.578;2022-08-19T01:48:04;9.90;;;3.00;;
35488;SDS011;21602;55.670;37.578;2022-08-19T01:50:31;5.93;;;3.08;;
35488;SDS011;21602;55.670;37.578;2022-08-19T01:52:58;6.90;;;2.95;;
35488;SDS011;21602;55.670;37.578;2022-08-19T01:55:25;4.50;;;3.00;;
35488;SDS011;21602;55.670;37.578;2022-08-19T01:57:52;4.53;;;2.80;;
35488;SDS011;21602;55.670;37.578;2022-08-19T02:00:23;7.03;;;3.25;;
35488;SDS011;21602;55.670;37.578;2022-08-19T02:02:50;7.15;;;3.33;;
35488;SDS011;21602;55.670;37.578;2022-08-19T02:05:16;8.35;;;4.05;;
35488;SDS011;21602;55.670;37.578;2022-08-19T02:07:43;8.18;;;3.10;;
35488;SDS011;21602;55.670;37.578;2022-08-19T02:10:11;12.07;;;7.13;;
35488;SDS011;21602;55.670;37.578;2022-08-19T02:12:39;11.82;;;3.30;;
35488;SDS011;21602;55.670;37.578;2022-08-19T02:15:06;9.95;;;8.07;;
35488;SDS011;21602;55.670;37.578;2022-08-19T02:17:32;8.65;;;3.67;;
35488;SDS011;21602;55.670;37.578;2022-08-19T02:19:59;21.92;;;10.95;;
35488;SDS011;21602;55.670;37.578;2022-08-19T02:22:25;12.13;;;4.25;;
35488;SDS011;21602;55.670;37.578;2022-08-19T02:24:51;12.48;;;3.90;;
35488;SDS011;21602;55.670;37.578;2022-08-19T02:27:18;8.23;;;5.03;;
35488;SDS011;21602;55.670;37.578;2022-08-19T02:29:45;8.43;;;3.85;;
35488;SDS011;21602;55.670;37.578;2022-08-19T02:34:39;14.65;;;3.97;;
35488;SDS011;21602;55.670;37.578;2022-08-19T02:37:05;7.05;;;4.18;;
35488;SDS011;21602;55.670;37.578;2022-08-19T02:39:30;17.88;;;4.55;;
35488;SDS011;21602;55.670;37.578;2022-08-19T02:41:56;7.22;;;3.45;;
35488;SDS011;21602;55.670;37.578;2022-08-19T02:44:24;12.10;;;4.10;;
35488;SDS011;21602;55.670;37.578;2022-08-19T02:46:50;16.08;;;4.60;;
35488;SDS011;21602;55.670;37.578;2022-08-19T02:49:16;9.18;;;3.83;;
35488;SDS011;21602;55.670;37.578;2022-08-19T02:51:43;9.98;;;4.28;;
35488;SDS011;21602;55.670;37.578;2022-08-19T02:54:10;7.15;;;3.83;;
35488;SDS011;21602;55.670;37.578;2022-08-19T02:56:39;8.35;;;3.80;;
35488;SDS011;21602;55.670;37.578;2022-08-19T02:59:06;7.38;;;3.35;;
35488;SDS011;21602;55.670;37.578;2022-08-19T03:01:36;11.00;;;4.00;;
35488;SDS011;21602;55.670;37.578;2022-08-19T03:04:06;19.77;;;4.20;;
35488;SDS011;21602;55.670;37.578;2022-08-19T03:06:36;7.05;;;3.03;;
35488;SDS011;21602;55.670;37.578;2022-08-19T03:09:02;10.80;;;3.17;;
35488;SDS011;21602;55.670;37.578;2022-08-19T03:11:29;9.30;;;4.43;;
35488;SDS011;21602;55.670;37.578;2022-08-19T03:13:57;7.75;;;3.95;;
35488;SDS011;21602;55.670;37.578;2022-08-19T03:16:26;7.57;;;3.25;;
35488;SDS011;21602;55.670;37.578;2022-08-19T03:18:55;9.43;;;3.13;;
35488;SDS011;21602;55.670;37.578;2022-08-19T03:21:23;13.27;;;4.35;;
35488;SDS011;21602;55.670;37.578;2022-08-19T03:23:50;5.13;;;3.83;;
35488;SDS011;21602;55.670;37.578;2022-08-19T03:26:19;5.80;;;3.85;;
35488;SDS011;21602;55.670;37.578;2022-08-19T03:28:45;13.60;;;3.72;;
35488;SDS011;21602;55.670;37.578;2022-08-19T03:31:15;11.75;;;4.30;;
35488;SDS011;21602;55.670;37.578;2022-08-19T03:33:43;11.35;;;4.57;;
35488;SDS011;21602;55.670;37.578;2022-08-19T03:36:11;13.75;;;4.53;;
35488;SDS011;21602;55.670;37.578;2022-08-19T03:38:42;14.65;;;5.25;;
35488;SDS011;21602;55.670;37.578;2022-08-19T03:41:14;12.75;;;4.82;;
35488;SDS011;21602;55.670;37.578;2022-08-19T03:43:42;10.52;;;4.40;;
35488;SDS011;21602;55.670;37.578;2022-08-19T03:46:18;7.28;;;4.00;;
35488;SDS011;21602;55.670;37.578;2022-08-19T03:48:47;10.35;;;4.07;;
35488;SDS011;21602;55.670;37.578;2022-08-19T03:53:47;18.48;;;4.93;;
35488;SDS011;21602;55.670;37.578;2022-08-19T03:56:13;9.15;;;4.05;;
35488;SDS011;21602;55.670;37.578;2022-08-19T03:58:41;14.27;;;4.65;;
35488;SDS011;21602;55.670;37.578;2022-08-19T04:01:08;19.27;;;5.80;;
35488;SDS011;21602;55.670;37.578;2022-08-19T04:03:35;10.18;;;3.67;;
35488;SDS011;21602;55.670;37.578;2022-08-19T04:06:15;38.67;;;14.25;;
35488;SDS011;21602;55.670;37.578;2022-08-19T04:08:44;10.57;;;4.75;;
35488;SDS011;21602;55.670;37.578;2022-08-19T04:11:12;10.50;;;5.03;;
35488;SDS011;21602;55.670;37.578;2022-08-19T04:13:40;15.80;;;4.25;;
35488;SDS011;21602;55.670;37.578;2022-08-19T04:16:08;9.10;;;3.58;;
35488;SDS011;21602;55.670;37.578;2022-08-19T04:18:35;9.35;;;4.80;;
35488;SDS011;21602;55.670;37.578;2022-08-19T04:23:29;8.43;;;3.22;;
35488;SDS011;21602;55.670;37.578;2022-08-19T04:25:55;8.98;;;3.78;;
35488;SDS011;21602;55.670;37.578;2022-08-19T04:28:22;7.68;;;4.35;;
35488;SDS011;21602;55.670;37.578;2022-08-19T04:30:51;12.93;;;5.45;;
35488;SDS011;21602;55.670;37.578;2022-08-19T04:33:19;14.57;;;5.45;;
35488;SDS011;21602;55.670;37.578;2022-08-19T04:35:50;9.07;;;4.03;;
35488;SDS011;21602;55.670;37.578;2022-08-19T04:38:18;6.22;;;3.67;;
35488;SDS011;21602;55.670;37.578;2022-08-19T04:40:46;10.48;;;4.90;;
35488;SDS011;21602;55.670;37.578;2022-08-19T04:43:32;11.80;;;4.32;;
35488;SDS011;21602;55.670;37.578;2022-08-19T04:46:06;14.77;;;6.85;;
35488;SDS011;21602;55.670;37.578;2022-08-19T04:48:33;16.08;;;7.60;;
35488;SDS011;21602;55.670;37.578;2022-08-19T04:51:00;7.47;;;4.30;;
35488;SDS011;21602;55.670;37.578;2022-08-19T04:53:32;11.50;;;4.63;;
35488;SDS011;21602;55.670;37.578;2022-08-19T04:56:03;14.18;;;6.07;;
35488;SDS011;21602;55.670;37.578;2022-08-19T04:58:32;10.20;;;4.40;;
35488;SDS011;21602;55.670;37.578;2022-08-19T05:00:59;14.57;;;6.53;;
35488;SDS011;21602;55.670;37.578;2022-08-19T05:03:27;16.55;;;6.28;;
35488;SDS011;21602;55.670;37.578;2022-08-19T05:06:03;15.20;;;5.38;;
35488;SDS011;21602;55.670;37.578;2022-08-19T05:08:33;11.98;;;7.40;;
35488;SDS011;21602;55.670;37.578;2022-08-19T05:10:59;8.73;;;4.68;;
35488;SDS011;21602;55.670;37.578;2022-08-19T05:13:25;14.30;;;6.75;;
35488;SDS011;21602;55.670;37.578;2022-08-19T05:15:55;9.70;;;6.93;;
35488;SDS011;21602;55.670;37.578;2022-08-19T05:18:23;25.88;;;6.22;;
35488;SDS011;21602;55.670;37.578;2022-08-19T05:21:08;6.60;;;4.43;;
35488;SDS011;21602;55.670;37.578;2022-08-19T05:23:54;11.40;;;4.70;;
35488;SDS011;21602;55.670;37.578;2022-08-19T05:26:19;18.83;;;8.40;;
35488;SDS011;21602;55.670;37.578;2022-08-19T05:28:45;15.27;;;9.65;;
35488;SDS011;21602;55.670;37.578;2022-08-19T05:31:11;8.95;;;5.57;;
35488;SDS011;21602;55.670;37.578;2022-08-19T05:33:38;15.60;;;4.55;;
35488;SDS011;21602;55.670;37.578;2022-08-19T05:36:05;11.10;;;5.60;;
35488;SDS011;21602;55.670;37.578;2022-08-19T05:38:33;17.80;;;10.02;;
35488;SDS011;21602;55.670;37.578;2022-08-19T05:41:10;17.55;;;5.45;;
35488;SDS011;21602;55.670;37.578;2022-08-19T05:43:37;12.30;;;4.47;;
35488;SDS011;21602;55.670;37.578;2022-08-19T05:46:03;20.30;;;5.28;;
35488;SDS011;21602;55.670;37.578;2022-08-19T05:48:34;8.38;;;5.43;;
35488;SDS011;21602;55.670;37.578;2022-08-19T05:51:04;11.70;;;4.95;;
35488;SDS011;21602;55.670;37.578;2022-08-19T05:53:34;10.00;;;5.55;;
35488;SDS011;21602;55.670;37.578;2022-08-19T05:56:07;14.27;;;4.53;;
35488;SDS011;21602;55.670;37.578;2022-08-19T05:58:34;19.75;;;9.55;;
35488;SDS011;21602;55.670;37.578;2022-08-19T06:01:01;12.05;;;6.13;;
35488;SDS011;21602;55.670;37.578;2022-08-19T06:03:31;9.88;;;4.40;;
35488;SDS011;21602;55.670;37.578;2022-08-19T06:05:58;12.57;;;5.60;;
35488;SDS011;21602;55.670;37.578;2022-08-19T06:08:26;11.53;;;6.17;;
35488;SDS011;21602;55.670;37.578;2022-08-19T06:10:52;12.75;;;6.88;;
35488;SDS011;21602;55.670;37.578;2022-08-19T06:13:18;12.30;;;4.13;;
35488;SDS011;21602;55.670;37.578;2022-08-19T06:15:45;8.52;;;4.10;;
35488;SDS011;21602;55.670;37.578;2022-08-19T06:18:12;18.08;;;6.40;;
35488;SDS011;21602;55.670;37.578;2022-08-19T06:20:39;14.05;;;5.13;;
35488;SDS011;21602;55.670;37.578;2022-08-19T06:23:06;20.42;;;6.60;;
35488;SDS011;21602;55.670;37.578;2022-08-19T06:25:31;18.55;;;6.20;;
35488;SDS011;21602;55.670;37.578;2022-08-19T06:27:57;10.40;;;4.40;;
35488;SDS011;21602;55.670;37.578;2022-08-19T06:30:23;13.40;;;6.07;;
35488;SDS011;21602;55.670;37.578;2022-08-19T06:32:49;12.90;;;4.70;;
35488;SDS011;21602;55.670;37.578;2022-08-19T06:35:15;14.10;;;4.47;;
35488;SDS011;21602;55.670;37.578;2022-08-19T06:37:42;13.57;;;6.67;;
35488;SDS011;21602;55.670;37.578;2022-08-19T06:40:08;18.58;;;4.65;;
35488;SDS011;21602;55.670;37.578;2022-08-19T06:42:35;12.93;;;5.68;;
35488;SDS011;21602;55.670;37.578;2022-08-19T06:45:04;12.23;;;4.95;;
35488;SDS011;21602;55.670;37.578;2022-08-19T06:47:30;11.23;;;4.50;;
35488;SDS011;21602;55.670;37.578;2022-08-19T06:49:58;12.90;;;4.57;;
35488;SDS011;21602;55.670;37.578;2022-08-19T06:52:31;11.15;;;4.45;;
35488;SDS011;21602;55.670;37.578;2022-08-19T06:54:59;13.05;;;3.90;;
35488;SDS011;21602;55.670;37.578;2022-08-19T06:57:25;8.10;;;4.07;;
35488;SDS011;21602;55.670;37.578;2022-08-19T06:59:52;16.33;;;4.65;;
35488;SDS011;21602;55.670;37.578;2022-08-19T07:02:18;12.85;;;4.25;;
35488;SDS011;21602;55.670;37.578;2022-08-19T07:04:44;13.82;;;4.30;;
35488;SDS011;21602;55.670;37.578;2022-08-19T07:07:11;11.40;;;4.13;;
35488;SDS011;21602;55.670;37.578;2022-08-19T07:09:40;13.68;;;3.97;;
35488;SDS011;21602;55.670;37.578;2022-08-19T07:12:09;12.40;;;3.75;;
35488;SDS011;21602;55.670;37.578;2022-08-19T07:14:37;16.55;;;4.30;;
35488;SDS011;21602;55.670;37.578;2022-08-19T07:17:05;20.77;;;3.90;;
35488;SDS011;21602;55.670;37.578;2022-08-19T07:19:32;16.23;;;4.85;;
35488;SDS011;21602;55.670;37.578;2022-08-19T07:22:00;8.65;;;4.00;;
35488;SDS011;21602;55.670;37.578;2022-08-19T07:24:28;8.48;;;4.78;;
35488;SDS011;21602;55.670;37.578;2022-08-19T07:26:55;11.45;;;4.88;;
35488;SDS011;21602;55.670;37.578;2022-08-19T07:29:26;8.90;;;4.45;;
35488;SDS011;21602;55.670;37.578;2022-08-19T07:31:53;11.57;;;3.90;;
35488;SDS011;21602;55.670;37.578;2022-08-19T07:34:22;12.15;;;4.28;;
35488;SDS011;21602;55.670;37.578;2022-08-19T07:36:49;11.93;;;4.20;;
35488;SDS011;21602;55.670;37.578;2022-08-19T07:39:16;12.73;;;4.20;;
35488;SDS011;21602;55.670;37.578;2022-08-19T07:41:45;13.05;;;4.15;;
35488;SDS011;21602;55.670;37.578;2022-08-19T07:44:12;13.30;;;5.45;;
35488;SDS011;21602;55.670;37.578;2022-08-19T07:46:41;11.32;;;6.75;;
35488;SDS011;21602;55.670;37.578;2022-08-19T07:49:10;6.47;;;3.50;;
35488;SDS011;21602;55.670;37.578;2022-08-19T07:51:42;15.43;;;7.72;;
35488;SDS011;21602;55.670;37.578;2022-08-19T07:54:09;5.35;;;3.63;;
35488;SDS011;21602;55.670;37.578;2022-08-19T07:56:37;9.10;;;4.15;;
35488;SDS011;21602;55.670;37.578;2022-08-19T07:59:03;12.60;;;4.25;;
35488;SDS011;21602;55.670;37.578;2022-08-19T08:01:30;8.57;;;4.30;;
35488;SDS011;21602;55.670;37.578;2022-08-19T08:03:58;8.50;;;2.65;;
35488;SDS011;21602;55.670;37.578;2022-08-19T08:06:43;11.48;;;3.53;;
35488;SDS011;21602;55.670;37.578;2022-08-19T08:09:37;10.90;;;3.13;;
35488;SDS011;21602;55.670;37.578;2022-08-19T08:12:08;7.13;;;3.28;;
35488;SDS011;21602;55.670;37.578;2022-08-19T08:15:02;9.52;;;3.92;;
35488;SDS011;21602;55.670;37.578;2022-08-19T08:17:33;8.00;;;3.20;;
35488;SDS011;21602;55.670;37.578;2022-08-19T08:20:03;7.53;;;3.85;;
35488;SDS011;21602;55.670;37.578;2022-08-19T08:22:32;12.40;;;3.67;;
35488;SDS011;21602;55.670;37.578;2022-08-19T08:25:17;8.20;;;3.83;;
35488;SDS011;21602;55.670;37.578;2022-08-19T08:27:46;10.88;;;4.18;;
35488;SDS011;21602;55.670;37.578;2022-08-19T08:30:14;5.68;;;3.53;;
35488;SDS011;21602;55.670;37.578;2022-08-19T08:32:45;12.80;;;3.35;;
35488;SDS011;21602;55.670;37.578;2022-08-19T08:35:12;8.68;;;3.63;;
35488;SDS011;21602;55.670;37.578;2022-08-19T08:37:39;8.65;;;3.83;;
35488;SDS011;21602;55.670;37.578;2022-08-19T08:40:07;7.32;;;3.70;;
35488;SDS011;21602;55.670;37.578;2022-08-19T08:42:46;13.30;;;3.72;;
35488;SDS011;21602;55.670;37.578;2022-08-19T08:45:18;6.40;;;3.08;;
35488;SDS011;21602;55.670;37.578;2022-08-19T08:47:45;9.23;;;4.40;;
35488;SDS011;21602;55.670;37.578;2022-08-19T08:50:19;11.43;;;4.90;;
35488;SDS011;21602;55.670;37.578;2022-08-19T08:53:01;5.50;;;3.55;;
35488;SDS011;21602;55.670;37.578;2022-08-19T08:55:30;12.82;;;4.95;;
35488;SDS011;21602;55.670;37.578;2022-08-19T08:58:13;14.63;;;3.58;;
35488;SDS011;21602;55.670;37.578;2022-08-19T09:00:44;6.88;;;3.08;;
35488;SDS011;21602;55.670;37.578;2022-08-19T09:03:16;7.05;;;2.50;;
35488;SDS011;21602;55.670;37.578;2022-08-19T09:11:22;10.43;;;4.68;;
35488;SDS011;21602;55.670;37.578;2022-08-19T09:14:23;15.00;;;3.67;;
35488;SDS011;21602;55.670;37.578;2022-08-19T09:16:50;15.13;;;3.38;;
35488;SDS011;21602;55.670;37.578;2022-08-19T09:19:17;7.78;;;2.50;;
35488;SDS011;21602;55.670;37.578;2022-08-19T09:21:43;11.00;;;2.67;;
35488;SDS011;21602;55.670;37.578;2022-08-19T09:24:08;10.88;;;3.60;;
35488;SDS011;21602;55.670;37.578;2022-08-19T09:26:34;22.00;;;3.47;;
35488;SDS011;21602;55.670;37.578;2022-08-19T09:29:00;9.30;;;4.20;;
35488;SDS011;21602;55.670;37.578;2022-08-19T09:31:30;8.77;;;3.35;;
35488;SDS011;21602;55.670;37.578;2022-08-19T09:33:58;4.43;;;2.50;;
35488;SDS011;21602;55.670;37.578;2022-08-19T09:36:25;14.43;;;4.35;;
35488;SDS011;21602;55.670;37.578;2022-08-19T09:38:54;8.48;;;3.17;;
35488;SDS011;21602;55.670;37.578;2022-08-19T09:41:22;9.73;;;4.13;;
35488;SDS011;21602;55.670;37.578;2022-08-19T09:43:50;11.57;;;3.10;;
35488;SDS011;21602;55.670;37.578;2022-08-19T09:46:19;9.43;;;4.10;;
35488;SDS011;21602;55.670;37.578;2022-08-19T09:48:46;11.63;;;3.20;;
35488;SDS011;21602;55.670;37.578;2022-08-19T09:51:21;15.52;;;3.65;;
35488;SDS011;21602;55.670;37.578;2022-08-19T09:53:49;9.88;;;3.58;;
35488;SDS011;21602;55.670;37.578;2022-08-19T09:56:19;9.65;;;2.78;;
35488;SDS011;21602;55.670;37.578;2022-08-19T09:58:45;18.33;;;3.15;;
35488;SDS011;21602;55.670;37.578;2022-08-19T10:01:19;19.88;;;7.18;;
35488;SDS011;21602;55.670;37.578;2022-08-19T10:03:49;19.55;;;3.55;;
35488;SDS011;21602;55.670;37.578;2022-08-19T10:06:20;15.27;;;2.90;;
35488;SDS011;21602;55.670;37.578;2022-08-19T10:11:12;14.55;;;3.47;;
35488;SDS011;21602;55.670;37.578;2022-08-19T10:13:41;11.77;;;2.42;;
35488;SDS011;21602;55.670;37.578;2022-08-19T10:16:10;9.30;;;2.13;;
35488;SDS011;21602;55.670;37.578;2022-08-19T10:18:38;12.65;;;2.50;;
35488;SDS011;21602;55.670;37.578;2022-08-19T10:21:09;10.35;;;2.50;;
35488;SDS011;21602;55.670;37.578;2022-08-19T10:23:40;23.65;;;4.90;;
35488;SDS011;21602;55.670;37.578;2022-08-19T10:26:13;7.45;;;3.28;;
35488;SDS011;21602;55.670;37.578;2022-08-19T10:28:41;24.85;;;2.50;;
35488;SDS011;21602;55.670;37.578;2022-08-19T10:31:08;10.35;;;3.00;;
35488;SDS011;21602;55.670;37.578;2022-08-19T10:33:42;7.15;;;3.13;;
35488;SDS011;21602;55.670;37.578;2022-08-19T10:36:10;13.23;;;2.80;;
35488;SDS011;21602;55.670;37.578;2022-08-19T10:38:43;7.95;;;2.90;;
35488;SDS011;21602;55.670;37.578;2022-08-19T10:41:13;17.77;;;3.20;;
35488;SDS011;21602;55.670;37.578;2022-08-19T10:43:41;13.27;;;2.83;;
35488;SDS011;21602;55.670;37.578;2022-08-19T10:46:08;14.80;;;3.20;;
35488;SDS011;21602;55.670;37.578;2022-08-19T10:48:35;13.70;;;2.72;;
35488;SDS011;21602;55.670;37.578;2022-08-19T10:51:01;9.50;;;2.90;;
35488;SDS011;21602;55.670;37.578;2022-08-19T10:53:47;11.18;;;2.65;;
35488;SDS011;21602;55.670;37.578;2022-08-19T10:56:12;12.10;;;3.05;;
35488;SDS011;21602;55.670;37.578;2022-08-19T10:58:56;10.93;;;2.30;;
35488;SDS011;21602;55.670;37.578;2022-08-19T11:01:23;8.57;;;2.55;;
35488;SDS011;21602;55.670;37.578;2022-08-19T11:03:50;13.15;;;2.40;;
35488;SDS011;21602;55.670;37.578;2022-08-19T11:06:16;19.13;;;2.08;;
35488;SDS011;21602;55.670;37.578;2022-08-19T11:08:42;16.60;;;2.40;;
35488;SDS011;21602;55.670;37.578;2022-08-19T11:11:11;12.98;;;3.60;;
35488;SDS011;21602;55.670;37.578;2022-08-19T11:13:38;7.15;;;2.53;;
35488;SDS011;21602;55.670;37.578;2022-08-19T11:16:07;6.95;;;2.33;;
35488;SDS011;21602;55.670;37.578;2022-08-19T11:18:35;12.85;;;2.70;;
35488;SDS011;21602;55.670;37.578;2022-08-19T11:23:35;9.32;;;2.20;;
35488;SDS011;21602;55.670;37.578;2022-08-19T11:26:01;7.43;;;1.98;;
35488;SDS011;21602;55.670;37.578;2022-08-19T11:28:27;8.63;;;3.08;;
35488;SDS011;21602;55.670;37.578;2022-08-19T11:30:53;10.52;;;2.72;;
35488;SDS011;21602;55.670;37.578;2022-08-19T11:33:19;12.93;;;6.80;;
35488;SDS011;21602;55.670;37.578;2022-08-19T11:35:45;6.47;;;2.13;;
35488;SDS011;21602;55.670;37.578;2022-08-19T11:38:10;13.77;;;2.15;;
35488;SDS011;21602;55.670;37.578;2022-08-19T11:40:37;6.68;;;2.75;;
35488;SDS011;21602;55.670;37.578;2022-08-19T11:43:03;11.57;;;6.40;;
35488;SDS011;21602;55.670;37.578;2022-08-19T11:45:29;7.15;;;2.40;;
35488;SDS011;21602;55.670;37.578;2022-08-19T11:47:55;8.25;;;2.38;;
35488;SDS011;21602;55.670;37.578;2022-08-19T11:50:22;7.95;;;2.45;;
35488;SDS011;21602;55.670;37.578;2022-08-19T11:52:48;12.23;;;2.38;;
35488;SDS011;21602;55.670;37.578;2022-08-19T11:55:15;8.05;;;2.72;;
35488;SDS011;21602;55.670;37.578;2022-08-19T11:57:41;7.28;;;4.50;;
35488;SDS011;21602;55.670;37.578;2022-08-19T12:00:09;7.35;;;4.47;;
35488;SDS011;21602;55.670;37.578;2022-08-19T12:02:37;5.40;;;3.33;;
35488;SDS011;21602;55.670;37.578;2022-08-19T12:05:03;6.60;;;2.55;;
35488;SDS011;21602;55.670;37.578;2022-08-19T12:07:29;8.30;;;2.95;;
35488;SDS011;21602;55.670;37.578;2022-08-19T12:09:58;12.48;;;5.43;;
35488;SDS011;21602;55.670;37.578;2022-08-19T12:12:25;13.37;;;5.60;;
35488;SDS011;21602;55.670;37.578;2022-08-19T12:14:52;11.52;;;2.67;;
35488;SDS011;21602;55.670;37.578;2022-08-19T12:17:24;5.68;;;2.35;;
35488;SDS011;21602;55.670;37.578;2022-08-19T12:19:52;5.20;;;2.80;;
35488;SDS011;21602;55.670;37.578;2022-08-19T12:22:18;8.90;;;2.35;;
35488;SDS011;21602;55.670;37.578;2022-08-19T12:24:44;8.20;;;3.17;;
35488;SDS011;21602;55.670;37.578;2022-08-19T12:27:10;12.77;;;2.38;;
35488;SDS011;21602;55.670;37.578;2022-08-19T12:29:35;6.40;;;2.50;;
35488;SDS011;21602;55.670;37.578;2022-08-19T12:32:02;9.50;;;2.65;;
35488;SDS011;21602;55.670;37.578;2022-08-19T12:34:28;12.80;;;3.22;;
35488;SDS011;21602;55.670;37.578;2022-08-19T12:36:58;6.10;;;3.15;;
35488;SDS011;21602;55.670;37.578;2022-08-19T12:39:26;13.45;;;2.90;;
35488;SDS011;21602;55.670;37.578;2022-08-19T12:41:52;11.93;;;3.17;;
35488;SDS011;21602;55.670;37.578;2022-08-19T12:44:18;10.10;;;3.03;;
35488;SDS011;21602;55.670;37.578;2022-08-19T12:46:44;6.97;;;2.90;;
35488;SDS011;21602;55.670;37.578;2022-08-19T12:49:10;10.38;;;2.92;;
35488;SDS011;21602;55.670;37.578;2022-08-19T12:51:36;10.55;;;3.00;;
35488;SDS011;21602;55.670;37.578;2022-08-19T12:54:02;7.78;;;3.10;;
35488;SDS011;21602;55.670;37.578;2022-08-19T12:56:28;10.20;;;2.47;;
35488;SDS011;21602;55.670;37.578;2022-08-19T12:58:54;9.07;;;2.40;;
35488;SDS011;21602;55.670;37.578;2022-08-19T13:01:21;3.75;;;2.50;;
35488;SDS011;21602;55.670;37.578;2022-08-19T13:03:46;12.27;;;2.70;;
35488;SDS011;21602;55.670;37.578;2022-08-19T13:06:12;8.20;;;2.50;;
35488;SDS011;21602;55.670;37.578;2022-08-19T13:08:39;5.07;;;2.38;;
35488;SDS011;21602;55.670;37.578;2022-08-19T13:11:12;7.57;;;2.70;;
35488;SDS011;21602;55.670;37.578;2022-08-19T13:13:45;17.73;;;2.92;;
35488;SDS011;21602;55.670;37.578;2022-08-19T13:16:12;6.75;;;2.08;;
35488;SDS011;21602;55.670;37.578;2022-08-19T13:18:40;9.25;;;2.63;;
35488;SDS011;21602;55.670;37.578;2022-08-19T13:21:08;13.65;;;5.20;;
35488;SDS011;21602;55.670;37.578;2022-08-19T13:23:36;10.57;;;4.03;;
35488;SDS011;21602;55.670;37.578;2022-08-19T13:26:03;12.60;;;4.43;;
35488;SDS011;21602;55.670;37.578;2022-08-19T13:28:32;11.95;;;4.28;;
35488;SDS011;21602;55.670;37.578;2022-08-19T13:31:20;11.05;;;4.00;;
35488;SDS011;21602;55.670;37.578;2022-08-19T13:34:06;8.50;;;4.43;;
35488;SDS011;21602;55.670;37.578;2022-08-19T13:36:33;11.50;;;4.03;;
35488;SDS011;21602;55.670;37.578;2022-08-19T13:38:59;13.43;;;6.80;;
35488;SDS011;21602;55.670;37.578;2022-08-19T13:41:25;9.25;;;4.25;;
35488;SDS011;21602;55.670;37.578;2022-08-19T13:43:52;9.37;;;4.77;;
35488;SDS011;21602;55.670;37.578;2022-08-19T13:46:19;15.73;;;4.95;;
35488;SDS011;21602;55.670;37.578;2022-08-19T13:48:45;7.85;;;5.95;;
35488;SDS011;21602;55.670;37.578;2022-08-19T13:53:44;11.73;;;7.30;;
35488;SDS011;21602;55.670;37.578;2022-08-19T13:56:14;10.05;;;8.25;;
35488;SDS011;21602;55.670;37.578;2022-08-19T13:58:42;17.52;;;8.00;;
35488;SDS011;21602;55.670;37.578;2022-08-19T14:01:09;12.35;;;7.10;;
35488;SDS011;21602;55.670;37.578;2022-08-19T14:03:35;8.55;;;6.00;;
35488;SDS011;21602;55.670;37.578;2022-08-19T14:06:02;13.32;;;9.50;;
35488;SDS011;21602;55.670;37.578;2022-08-19T14:08:28;15.45;;;9.25;;
35488;SDS011;21602;55.670;37.578;2022-08-19T14:10:58;17.83;;;8.55;;
35488;SDS011;21602;55.670;37.578;2022-08-19T14:13:25;19.15;;;9.10;;
35488;SDS011;21602;55.670;37.578;2022-08-19T14:15:51;12.20;;;9.55;;
35488;SDS011;21602;55.670;37.578;2022-08-19T14:18:18;21.20;;;9.67;;
35488;SDS011;21602;55.670;37.578;2022-08-19T14:20:44;10.25;;;8.93;;
35488;SDS011;21602;55.670;37.578;2022-08-19T14:23:10;16.70;;;10.05;;
35488;SDS011;21602;55.670;37.578;2022-08-19T14:25:39;18.95;;;8.95;;
35488;SDS011;21602;55.670;37.578;2022-08-19T14:28:04;53.53;;;23.27;;
35488;SDS011;21602;55.670;37.578;2022-08-19T14:30:33;28.23;;;13.00;;
35488;SDS011;21602;55.670;37.578;2022-08-19T14:33:01;22.83;;;13.80;;
35488;SDS011;21602;55.670;37.578;2022-08-19T14:35:28;47.78;;;19.90;;
35488;SDS011;21602;55.670;37.578;2022-08-19T14:37:57;23.42;;;10.43;;
35488;SDS011;21602;55.670;37.578;2022-08-19T14:40:24;22.80;;;15.73;;
35488;SDS011;21602;55.670;37.578;2022-08-19T14:45:25;29.33;;;19.95;;
35488;SDS011;21602;55.670;37.578;2022-08-19T14:47:52;23.48;;;19.20;;
35488;SDS011;21602;55.670;37.578;2022-08-19T14:50:18;40.28;;;24.65;;
35488;SDS011;21602;55.670;37.578;2022-08-19T14:52:45;28.20;;;22.35;;
35488;SDS011;21602;55.670;37.578;2022-08-19T14:55:16;37.00;;;25.23;;
35488;SDS011;21602;55.670;37.578;2022-08-19T14:57:43;39.50;;;22.98;;
35488;SDS011;21602;55.670;37.578;2022-08-19T15:00:12;32.50;;;17.90;;